Kapaa, HI (96746)

9:28 AM HST on December 07, 2016 (GMT -1000)
Kalihiwai Ridge - Top of Halaulani Road | | Change Station

Elev 561 ft 22.17 °N, 159.44 °W | Updated 12 seconds ago

Mostly Cloudy
Mostly Cloudy
71.8 °F
Feels Like 71.8 °F
N
0.0
Wind Variable Wind from WSW
Gusts 0.0 mph

Today
High -- | Low -- °F
--% Chance of Precip.
Yesterday
High -- | Low -- °F
Precip. -- in
Pressure 30.00 in
Visibility 10.0 miles
Clouds Few 1600 ft
Mostly Cloudy 2100 ft
Mostly Cloudy 3600 ft
Dew Point 70 °F
Humidity 93%
Rainfall 0.00 in
Snow Depth Not available.
7:04 AM 5:54 PM
First Quarter, 55% visible
METAR PHLI 071853Z 29004KT 10SM FEW016 BKN021 BKN036 23/21 A3000 RMK AO2 SLP158 T02330206
Pressure 30.00 in
Visibility 10.0 miles
Clouds Few 1600 ft
Mostly Cloudy 2100 ft
Mostly Cloudy 3600 ft
Dew Point 70 °F
Humidity 93%
Rainfall 0.00 in
Snow Depth Not available.
7:04 AM 5:54 PM
First Quarter, 55% visible
METAR PHLI 071853Z 29004KT 10SM FEW016 BKN021 BKN036 23/21 A3000 RMK AO2 SLP158 T02330206

10-Day Weather Forecast

Almanac

Astronomy

Dec. 07, 2016 Rise Set
Actual Time
Civil Twilight
Nautical Twilight
Astronomical Twilight
Moon
Length of Visible Light
Length of Day
Tomorrow will be .
, % of the Moon is Illuminated

Today's Extremes

State Highs State Lows

Community

WunderPhotos

Upload Photos

1,956,164 photos uploaded!

WunderBlog® & News

Nearby

Air Quality

  Air Quality AQ Index Pollutant
Not available.

Snow Depth

Station Depth Elevation

Earthquake Activity

City Distance Mag. Time & Date
Minimum magnitude displayed is 2.5.

Coastal Water Temperatures

Place Temperature

Stations

Nearby Weather Stations

Station Location Temp. Windchill Dew Point Humidity Wind Precip. Elev Updated Type
                   

Watches & Warnings

There are currently no watches in effect.